Time;durP1;ratioP1;P1;durP2;ratioP2;P2;SDS_P1;SDS_P2;PMS_P1;PMS_P2;Temp;Humidity;BMP_temperature;BMP_pressure;BME280_temperature;BME280_humidity;BME280_pressure;Samples;Min_cycle;Max_cycle;Signal;HPM_P1;HPM_P2
2021/10/02 00:31:04;;;;;;;;;;;23.60;41.90;;;;;;456599;261;1059;-72
2021/10/02 00:34:44;;;;;;;;;;;23.70;41.20;;;;;;456722;261;1396;-72
2021/10/02 00:37:00;;;;;;;;;;;24.00;40.90;;;;;;456792;260;1365;-72
2021/10/02 00:41:34;;;;;;;;;;;24.10;40.70;;;;;;456771;261;1158;-72
2021/10/02 00:45:42;;;;;;;;;;;24.30;40.30;;;;;;456790;261;1196;-72
2021/10/02 00:47:44;;;;;;;;;;;24.10;40.50;;;;;;456721;260;2159;-72
2021/10/02 00:49:45;;;;;;;;;;;24.00;40.50;;;;;;456742;261;975;-72
2021/10/02 00:51:46;;;;;;;;;;;24.20;40.40;;;;;;456726;259;1319;-72
2021/10/02 00:53:48;;;;;;;;;;;24.00;40.20;;;;;;456814;260;1058;-72
2021/10/02 00:55:50;;;;;;;;;;;24.10;40.60;;;;;;456752;260;1206;-72
2021/10/02 00:57:51;;;;;;;;;;;23.90;40.70;;;;;;456781;260;1441;-72
2021/10/02 00:59:52;;;;;;;;;;;24.20;40.40;;;;;;456688;261;1115;-72
2021/10/02 01:01:53;;;;;;;;;;;24.20;40.20;;;;;;456689;260;1144;-72
2021/10/02 01:03:54;;;;;;;;;;;24.20;40.20;;;;;;456814;260;1266;-72
2021/10/02 01:05:56;;;;;;;;;;;24.10;40.10;;;;;;456783;260;1127;-72
2021/10/02 01:07:57;;;;;;;;;;;24.30;40.20;;;;;;456787;261;2201;-72
2021/10/02 01:09:59;;;;;;;;;;;24.20;40.00;;;;;;456837;260;994;-72
2021/10/02 01:12:00;;;;;;;;;;;24.30;40.20;;;;;;456743;260;1108;-72
2021/10/02 01:14:01;;;;;;;;;;;24.20;40.00;;;;;;456810;260;991;-72
2021/10/02 01:16:03;;;;;;;;;;;24.30;40.20;;;;;;456761;260;1237;-72
2021/10/02 01:18:04;;;;;;;;;;;24.30;40.00;;;;;;456799;259;981;-72
2021/10/02 01:20:05;;;;;;;;;;;24.20;40.30;;;;;;456824;260;957;-73
2021/10/02 01:22:09;;;;;;;;;;;24.20;40.00;;;;;;456699;260;1217;-72
2021/10/02 01:24:10;;;;;;;;;;;24.20;40.10;;;;;;456848;260;1034;-72
2021/10/02 01:26:11;;;;;;;;;;;24.40;39.80;;;;;;456717;258;1240;-72
2021/10/02 01:28:13;;;;;;;;;;;24.10;39.90;;;;;;456867;260;2210;-72
2021/10/02 01:30:18;;;;;;;;;;;24.30;40.10;;;;;;456782;261;979;-72
2021/10/02 01:32:18;;;;;;;;;;;24.00;40.40;;;;;;456632;260;1426;-73
2021/10/02 01:34:22;;;;;;;;;;;24.40;39.90;;;;;;456823;260;1595;-72
2021/10/02 01:36:25;;;;;;;;;;;24.30;39.90;;;;;;456801;260;1439;-72
2021/10/02 01:47:57;;;;;;;;;;;24.40;39.40;;;;;;450708;261;2196;-72
2021/10/02 01:49:58;;;;;;;;;;;24.40;39.70;;;;;;456802;260;1015;-72
2021/10/02 01:52:00;;;;;;;;;;;24.30;39.80;;;;;;456779;260;1102;-72
2021/10/02 01:54:01;;;;;;;;;;;24.20;39.80;;;;;;456750;261;1030;-72
2021/10/02 01:56:02;;;;;;;;;;;23.90;40.20;;;;;;456788;258;1132;-72
2021/10/02 01:58:03;;;;;;;;;;;23.90;40.10;;;;;;456743;260;1135;-72
2021/10/02 02:00:05;;;;;;;;;;;24.30;40.10;;;;;;456794;260;978;-72
2021/10/02 02:02:06;;;;;;;;;;;23.80;40.50;;;;;;456663;260;1155;-72
2021/10/02 02:04:08;;;;;;;;;;;24.30;39.80;;;;;;456827;260;1013;-72
2021/10/02 02:06:09;;;;;;;;;;;24.30;39.90;;;;;;456767;261;1075;-72
2021/10/02 02:08:10;;;;;;;;;;;24.50;39.60;;;;;;456817;260;2199;-72
2021/10/02 02:10:12;;;;;;;;;;;24.50;39.40;;;;;;456824;260;979;-72
2021/10/02 02:12:13;;;;;;;;;;;24.50;39.40;;;;;;456760;260;1168;-72
2021/10/02 02:14:14;;;;;;;;;;;24.30;39.60;;;;;;456899;259;1133;-72
2021/10/02 02:16:16;;;;;;;;;;;24.20;40.00;;;;;;456693;261;1172;-72
2021/10/02 02:18:17;;;;;;;;;;;24.40;39.60;;;;;;456844;259;1081;-72
2021/10/02 02:20:18;;;;;;;;;;;24.40;39.60;;;;;;456731;260;1048;-72
2021/10/02 02:22:20;;;;;;;;;;;24.00;40.30;;;;;;456751;260;1217;-72
2021/10/02 02:24:21;;;;;;;;;;;24.30;39.70;;;;;;456870;260;1266;-72
2021/10/02 02:26:22;;;;;;;;;;;24.30;39.70;;;;;;456760;260;1181;-72
2021/10/02 02:28:25;;;;;;;;;;;24.30;39.70;;;;;;456812;260;2248;-72
2021/10/02 02:30:25;;;;;;;;;;;24.20;39.70;;;;;;456780;260;1507;-72
2021/10/02 02:32:26;;;;;;;;;;;24.40;39.70;;;;;;456746;260;1356;-72
2021/10/02 02:34:29;;;;;;;;;;;24.40;39.60;;;;;;456799;260;980;-72
2021/10/02 02:36:30;;;;;;;;;;;24.20;39.60;;;;;;456741;260;1348;-72
2021/10/02 02:38:31;;;;;;;;;;;24.30;39.60;;;;;;456815;260;1155;-72
2021/10/02 02:40:32;;;;;;;;;;;24.40;39.70;;;;;;456814;259;1068;-72
2021/10/02 02:42:34;;;;;;;;;;;24.20;39.90;;;;;;456766;260;1179;-72
2021/10/02 02:44:35;;;;;;;;;;;24.20;39.70;;;;;;456814;260;975;-72
2021/10/02 02:46:36;;;;;;;;;;;24.40;39.40;;;;;;456709;260;1340;-72
2021/10/02 02:48:38;;;;;;;;;;;24.40;39.40;;;;;;456747;260;2135;-72
2021/10/02 02:50:39;;;;;;;;;;;24.50;39.50;;;;;;456727;260;1344;-72
2021/10/02 02:52:40;;;;;;;;;;;24.60;39.30;;;;;;456742;260;1553;-72
2021/10/02 02:54:42;;;;;;;;;;;24.50;39.20;;;;;;456784;260;972;-72
2021/10/02 02:56:43;;;;;;;;;;;24.60;39.20;;;;;;456733;260;1233;-72
2021/10/02 02:58:44;;;;;;;;;;;24.60;39.30;;;;;;456760;260;1123;-72
2021/10/02 03:00:53;;;;;;;;;;;24.60;39.10;;;;;;456792;260;1253;-72
2021/10/02 03:02:53;;;;;;;;;;;24.60;39.20;;;;;;456724;260;1453;-72
2021/10/02 03:04:54;;;;;;;;;;;24.50;39.20;;;;;;456812;260;1016;-72
2021/10/02 03:06:55;;;;;;;;;;;24.60;39.20;;;;;;456753;260;2207;-72
2021/10/02 03:08:57;;;;;;;;;;;24.40;39.40;;;;;;456821;260;1196;-72
2021/10/02 03:11:01;;;;;;;;;;;24.40;39.40;;;;;;456861;258;1138;-72
2021/10/02 03:13:01;;;;;;;;;;;24.60;39.10;;;;;;456895;260;1720;-72
2021/10/02 03:15:02;;;;;;;;;;;24.50;39.30;;;;;;456892;260;963;-72
2021/10/02 03:17:03;;;;;;;;;;;24.40;39.40;;;;;;456798;260;1240;-73
2021/10/02 03:19:05;;;;;;;;;;;24.50;39.20;;;;;;456830;259;953;-72
2021/10/02 03:21:06;;;;;;;;;;;24.60;39.20;;;;;;456736;260;1209;-73
2021/10/02 03:23:07;;;;;;;;;;;24.40;39.30;;;;;;456743;260;1203;-72
2021/10/02 03:25:09;;;;;;;;;;;24.60;39.30;;;;;;456789;260;1206;-72
2021/10/02 03:27:10;;;;;;;;;;;24.60;39.10;;;;;;456793;260;2198;-73
2021/10/02 03:29:11;;;;;;;;;;;24.70;39.00;;;;;;456847;260;1022;-72
2021/10/02 03:31:13;;;;;;;;;;;24.60;39.10;;;;;;456726;260;1260;-72
2021/10/02 03:33:14;;;;;;;;;;;24.60;39.10;;;;;;456715;260;1128;-72
2021/10/02 03:35:16;;;;;;;;;;;24.60;39.10;;;;;;456789;261;1093;-72
2021/10/02 03:37:17;;;;;;;;;;;24.70;39.00;;;;;;456665;260;1240;-72
2021/10/02 03:39:19;;;;;;;;;;;24.70;39.00;;;;;;456727;261;1212;-72
2021/10/02 03:41:20;;;;;;;;;;;24.40;39.20;;;;;;456791;260;1150;-72
2021/10/02 03:43:21;;;;;;;;;;;24.50;39.10;;;;;;456817;260;1190;-72
2021/10/02 03:45:23;;;;;;;;;;;24.40;39.50;;;;;;456826;260;946;-72
2021/10/02 03:47:24;;;;;;;;;;;24.40;39.30;;;;;;456734;260;2194;-72
2021/10/02 03:49:25;;;;;;;;;;;24.60;39.20;;;;;;456863;260;1057;-72
2021/10/02 03:51:27;;;;;;;;;;;24.40;39.50;;;;;;456815;259;1175;-72
2021/10/02 03:53:28;;;;;;;;;;;24.40;39.40;;;;;;456833;260;1149;-72
2021/10/02 03:55:29;;;;;;;;;;;24.60;39.30;;;;;;456847;260;1240;-72
2021/10/02 03:57:31;;;;;;;;;;;24.60;39.10;;;;;;456851;260;1206;-72
2021/10/02 03:59:32;;;;;;;;;;;24.60;39.10;;;;;;456839;260;956;-72
2021/10/02 04:01:33;;;;;;;;;;;24.60;39.10;;;;;;456772;259;1203;-72
2021/10/02 04:03:35;;;;;;;;;;;24.50;39.10;;;;;;456844;261;1119;-72
2021/10/02 04:05:36;;;;;;;;;;;24.50;39.10;;;;;;456846;261;1225;-72
2021/10/02 04:07:37;;;;;;;;;;;24.60;39.10;;;;;;456650;261;2210;-72
2021/10/02 04:09:39;;;;;;;;;;;24.60;38.90;;;;;;456909;260;1210;-72
2021/10/02 04:11:40;;;;;;;;;;;24.60;39.00;;;;;;456803;260;1323;-72
2021/10/02 04:13:41;;;;;;;;;;;24.70;38.90;;;;;;456826;260;939;-73
2021/10/02 04:15:43;;;;;;;;;;;24.50;39.30;;;;;;456773;260;1217;-72
2021/10/02 04:17:44;;;;;;;;;;;24.30;39.30;;;;;;456785;260;999;-72
2021/10/02 04:19:45;;;;;;;;;;;24.60;39.10;;;;;;456834;260;1144;-72
2021/10/02 04:21:47;;;;;;;;;;;24.50;39.10;;;;;;456779;260;1250;-72
2021/10/02 04:23:48;;;;;;;;;;;24.60;39.20;;;;;;456851;260;1179;-72
2021/10/02 04:25:49;;;;;;;;;;;24.50;39.20;;;;;;456797;260;963;-72
2021/10/02 04:27:52;;;;;;;;;;;24.60;39.10;;;;;;456789;260;2144;-72
2021/10/02 04:29:52;;;;;;;;;;;24.40;39.50;;;;;;456789;260;1441;-72
2021/10/02 04:31:53;;;;;;;;;;;24.30;39.40;;;;;;456720;260;1268;-72
2021/10/02 04:33:55;;;;;;;;;;;24.20;39.90;;;;;;456757;260;1243;-73
2021/10/02 04:35:56;;;;;;;;;;;24.50;39.60;;;;;;456762;260;1168;-72
2021/10/02 04:37:59;;;;;;;;;;;24.10;40.20;;;;;;456785;260;1159;-72
2021/10/02 04:40:00;;;;;;;;;;;24.20;40.00;;;;;;456729;261;1195;-72
2021/10/02 04:42:01;;;;;;;;;;;24.20;40.00;;;;;;456762;260;1223;-73
2021/10/02 04:44:03;;;;;;;;;;;24.40;39.90;;;;;;456838;260;974;-72
2021/10/02 04:46:04;;;;;;;;;;;24.30;40.00;;;;;;456794;260;1216;-72
2021/10/02 04:48:05;;;;;;;;;;;24.30;39.70;;;;;;456813;260;2211;-72
2021/10/02 04:50:07;;;;;;;;;;;24.30;40.00;;;;;;456842;260;1407;-72
2021/10/02 04:52:08;;;;;;;;;;;24.30;40.10;;;;;;456687;261;1225;-72
2021/10/02 04:54:10;;;;;;;;;;;24.20;40.00;;;;;;456745;260;1172;-72
2021/10/02 04:56:13;;;;;;;;;;;24.30;40.10;;;;;;456347;261;1422;-72
2021/10/02 04:58:12;;;;;;;;;;;24.00;40.20;;;;;;456722;260;1402;-72
2021/10/02 05:00:13;;;;;;;;;;;24.20;39.90;;;;;;456800;260;967;-72
2021/10/02 05:02:15;;;;;;;;;;;24.10;40.40;;;;;;456654;260;1137;-72
2021/10/02 05:04:16;;;;;;;;;;;24.10;40.10;;;;;;456802;260;1109;-72
2021/10/02 05:06:18;;;;;;;;;;;24.50;39.80;;;;;;456708;258;1235;-72
2021/10/02 05:08:19;;;;;;;;;;;24.50;39.70;;;;;;456866;260;2213;-72
2021/10/02 05:10:20;;;;;;;;;;;24.30;39.90;;;;;;456799;260;1126;-72
2021/10/02 05:12:22;;;;;;;;;;;24.30;40.00;;;;;;456757;260;1528;-72
2021/10/02 05:14:23;;;;;;;;;;;24.50;39.70;;;;;;456828;260;1134;-72
2021/10/02 05:16:25;;;;;;;;;;;24.10;40.40;;;;;;456760;260;1361;-72
2021/10/02 05:18:26;;;;;;;;;;;24.20;40.10;;;;;;456741;261;1475;-72
2021/10/02 05:20:27;;;;;;;;;;;24.30;40.30;;;;;;456821;260;1317;-72
2021/10/02 05:22:28;;;;;;;;;;;24.40;40.00;;;;;;456733;260;1150;-72
2021/10/02 05:24:30;;;;;;;;;;;24.20;40.10;;;;;;456774;260;1230;-72
2021/10/02 05:26:31;;;;;;;;;;;24.50;39.90;;;;;;456795;260;1285;-72
2021/10/02 05:28:32;;;;;;;;;;;24.00;40.40;;;;;;456848;260;2187;-72
2021/10/02 05:30:34;;;;;;;;;;;24.40;40.20;;;;;;456834;260;1034;-72
2021/10/02 05:32:35;;;;;;;;;;;24.40;39.90;;;;;;456822;260;951;-72
2021/10/02 05:34:36;;;;;;;;;;;24.30;40.00;;;;;;456836;260;1006;-72
2021/10/02 05:36:38;;;;;;;;;;;24.20;39.90;;;;;;456814;260;1018;-73
2021/10/02 05:38:39;;;;;;;;;;;24.30;40.40;;;;;;456807;260;961;-72
2021/10/02 05:40:40;;;;;;;;;;;23.80;40.60;;;;;;456858;260;1271;-72
2021/10/02 05:42:42;;;;;;;;;;;24.30;40.50;;;;;;456753;260;988;-72
2021/10/02 05:44:43;;;;;;;;;;;23.90;40.90;;;;;;456801;260;997;-72
2021/10/02 05:46:44;;;;;;;;;;;24.20;40.30;;;;;;456734;260;1088;-72
2021/10/02 05:48:46;;;;;;;;;;;24.30;40.40;;;;;;456726;260;2217;-72
2021/10/02 05:50:47;;;;;;;;;;;23.90;40.80;;;;;;456799;261;1136;-73
2021/10/02 05:52:48;;;;;;;;;;;24.30;40.60;;;;;;456793;260;1121;-72
2021/10/02 05:54:50;;;;;;;;;;;24.10;40.50;;;;;;456780;259;1242;-72
2021/10/02 05:56:51;;;;;;;;;;;24.30;40.40;;;;;;456805;260;1160;-72
2021/10/02 05:58:52;;;;;;;;;;;24.30;40.50;;;;;;456822;260;975;-72
2021/10/02 06:00:54;;;;;;;;;;;23.90;41.10;;;;;;456818;261;1056;-72
2021/10/02 06:02:56;;;;;;;;;;;24.30;40.60;;;;;;456766;260;1012;-72
2021/10/02 06:04:57;;;;;;;;;;;23.90;41.10;;;;;;456759;260;979;-72
2021/10/02 06:06:59;;;;;;;;;;;24.10;41.00;;;;;;456816;260;1208;-72
2021/10/02 06:09:00;;;;;;;;;;;24.00;41.30;;;;;;456815;260;2214;-73
2021/10/02 06:11:01;;;;;;;;;;;24.10;40.70;;;;;;456763;259;1277;-72
2021/10/02 06:13:03;;;;;;;;;;;24.10;40.90;;;;;;456845;260;1124;-72
2021/10/02 06:15:04;;;;;;;;;;;24.10;41.10;;;;;;456865;260;1133;-72
2021/10/02 06:17:05;;;;;;;;;;;23.70;41.70;;;;;;456693;260;1124;-72
2021/10/02 06:19:07;;;;;;;;;;;24.10;41.20;;;;;;456788;260;1066;-72
2021/10/02 06:21:11;;;;;;;;;;;24.30;40.80;;;;;;456771;254;1148;-72
2021/10/02 06:23:09;;;;;;;;;;;24.20;41.10;;;;;;456872;260;1502;-72
2021/10/02 06:25:11;;;;;;;;;;;24.00;41.20;;;;;;456711;261;1129;-72
2021/10/02 06:27:12;;;;;;;;;;;24.10;41.30;;;;;;456800;260;1115;-72
2021/10/02 06:29:13;;;;;;;;;;;24.10;41.40;;;;;;456857;261;2162;-72
2021/10/02 06:31:15;;;;;;;;;;;24.10;41.40;;;;;;456746;261;1230;-72
2021/10/02 06:33:16;;;;;;;;;;;24.20;41.20;;;;;;456839;260;957;-72
2021/10/02 06:35:17;;;;;;;;;;;24.30;41.00;;;;;;456804;259;1273;-72
2021/10/02 06:37:19;;;;;;;;;;;24.40;41.10;;;;;;456747;260;1112;-72
2021/10/02 06:39:20;;;;;;;;;;;24.10;41.40;;;;;;456794;261;991;-72
2021/10/02 06:41:21;;;;;;;;;;;23.80;41.80;;;;;;456731;260;1316;-72
2021/10/02 06:43:23;;;;;;;;;;;24.20;41.60;;;;;;456643;261;1088;-72
2021/10/02 06:45:24;;;;;;;;;;;23.80;42.20;;;;;;456889;259;989;-72
2021/10/02 06:47:25;;;;;;;;;;;23.90;42.30;;;;;;456822;260;1161;-72
2021/10/02 06:49:29;;;;;;;;;;;23.70;42.30;;;;;;456827;260;2209;-72
2021/10/02 06:51:29;;;;;;;;;;;24.10;41.80;;;;;;456862;260;1543;-72
2021/10/02 06:53:31;;;;;;;;;;;24.30;41.60;;;;;;456881;260;1045;-72
2021/10/02 06:55:32;;;;;;;;;;;23.80;42.20;;;;;;456790;260;1136;-72
2021/10/02 06:57:33;;;;;;;;;;;24.20;41.90;;;;;;456697;260;1175;-72
2021/10/02 06:59:35;;;;;;;;;;;24.10;42.00;;;;;;456807;260;939;-72
2021/10/02 07:01:36;;;;;;;;;;;24.00;42.10;;;;;;456729;260;1145;-72
2021/10/02 07:03:37;;;;;;;;;;;24.10;42.00;;;;;;456764;261;1112;-72
2021/10/02 07:05:39;;;;;;;;;;;24.10;42.10;;;;;;456793;260;1486;-72
2021/10/02 07:07:40;;;;;;;;;;;24.20;42.10;;;;;;456889;260;1245;-72
2021/10/02 07:09:41;;;;;;;;;;;24.00;42.30;;;;;;456848;260;2222;-72
2021/10/02 07:11:43;;;;;;;;;;;24.30;42.10;;;;;;456760;260;1675;-72
2021/10/02 07:13:44;;;;;;;;;;;23.90;42.40;;;;;;456873;260;1098;-72
2021/10/02 07:15:45;;;;;;;;;;;24.00;42.70;;;;;;456830;260;1013;-72
2021/10/02 07:17:47;;;;;;;;;;;24.00;42.30;;;;;;456832;260;1179;-73
2021/10/02 07:19:48;;;;;;;;;;;24.00;42.70;;;;;;456931;260;960;-72
2021/10/02 07:21:49;;;;;;;;;;;24.30;42.10;;;;;;456787;259;1215;-72
2021/10/02 07:23:51;;;;;;;;;;;24.20;42.60;;;;;;456881;261;1573;-72
2021/10/02 07:25:53;;;;;;;;;;;23.80;42.80;;;;;;456781;260;1097;-72
2021/10/02 07:27:53;;;;;;;;;;;24.30;42.50;;;;;;456744;260;1456;-73
2021/10/02 07:29:54;;;;;;;;;;;24.20;42.50;;;;;;456802;260;2202;-72
2021/10/02 07:31:56;;;;;;;;;;;24.40;42.20;;;;;;456666;258;1221;-73
2021/10/02 07:33:57;;;;;;;;;;;24.00;43.00;;;;;;456855;260;1161;-72
2021/10/02 07:35:58;;;;;;;;;;;23.90;42.90;;;;;;456749;260;1221;-72
2021/10/02 07:38:00;;;;;;;;;;;23.90;43.20;;;;;;456753;259;1091;-73
2021/10/02 07:40:01;;;;;;;;;;;24.10;43.10;;;;;;456871;260;956;-72
2021/10/02 07:42:03;;;;;;;;;;;24.00;43.00;;;;;;456674;260;1230;-72
2021/10/02 07:44:04;;;;;;;;;;;24.30;43.00;;;;;;456837;261;1265;-72
2021/10/02 07:46:05;;;;;;;;;;;24.40;42.60;;;;;;456845;260;1082;-72
2021/10/02 07:48:06;;;;;;;;;;;24.20;43.20;;;;;;456862;260;1096;-72
2021/10/02 07:50:08;;;;;;;;;;;24.20;43.10;;;;;;456843;260;2198;-72
2021/10/02 07:52:09;;;;;;;;;;;24.60;42.60;;;;;;456765;261;1319;-72
2021/10/02 07:54:10;;;;;;;;;;;24.60;42.50;;;;;;456880;260;1085;-72
2021/10/02 07:56:12;;;;;;;;;;;24.50;42.60;;;;;;456794;260;1170;-72
2021/10/02 07:58:13;;;;;;;;;;;24.60;42.60;;;;;;456768;261;1168;-72
2021/10/02 08:00:15;;;;;;;;;;;24.50;42.80;;;;;;456774;260;984;-72
2021/10/02 08:02:16;;;;;;;;;;;24.60;43.10;;;;;;456789;260;1242;-72
2021/10/02 08:04:17;;;;;;;;;;;24.80;42.80;;;;;;456886;260;954;-72
2021/10/02 08:06:18;;;;;;;;;;;24.60;42.90;;;;;;456800;260;1245;-72
2021/10/02 08:08:20;;;;;;;;;;;24.70;43.00;;;;;;456894;260;1024;-72
2021/10/02 08:10:24;;;;;;;;;;;24.80;42.90;;;;;;456824;260;2209;-72
2021/10/02 08:12:22;;;;;;;;;;;24.60;43.20;;;;;;456831;260;1496;-72
2021/10/02 08:14:24;;;;;;;;;;;24.70;43.20;;;;;;456841;260;1096;-73
2021/10/02 08:16:25;;;;;;;;;;;24.70;43.20;;;;;;456821;260;1272;-72
2021/10/02 08:18:29;;;;;;;;;;;24.80;43.30;;;;;;456858;260;1077;-72
2021/10/02 08:20:28;;;;;;;;;;;24.80;43.30;;;;;;456887;260;1476;-72
2021/10/02 08:22:30;;;;;;;;;;;24.80;43.30;;;;;;456841;260;1181;-72
2021/10/02 08:24:31;;;;;;;;;;;24.60;43.70;;;;;;456843;260;1158;-72
2021/10/02 08:26:33;;;;;;;;;;;24.70;43.60;;;;;;456733;260;1215;-72
2021/10/02 08:28:34;;;;;;;;;;;24.60;43.80;;;;;;456846;260;1203;-72
2021/10/02 08:30:35;;;;;;;;;;;24.70;43.90;;;;;;456790;261;2127;-72
2021/10/02 08:32:37;;;;;;;;;;;24.70;44.00;;;;;;456756;260;1275;-72
2021/10/02 08:34:38;;;;;;;;;;;24.70;44.00;;;;;;456832;260;1082;-72
2021/10/02 08:36:39;;;;;;;;;;;24.80;43.90;;;;;;456753;260;1168;-72
2021/10/02 08:38:41;;;;;;;;;;;24.90;43.90;;;;;;456655;261;1157;-72
2021/10/02 08:40:42;;;;;;;;;;;24.90;43.90;;;;;;456818;260;1230;-72
2021/10/02 08:42:43;;;;;;;;;;;24.70;44.20;;;;;;456766;260;1175;-72
2021/10/02 08:44:45;;;;;;;;;;;24.70;44.30;;;;;;456888;260;1045;-72
2021/10/02 08:46:46;;;;;;;;;;;24.80;44.20;;;;;;456824;261;1238;-72
2021/10/02 08:48:48;;;;;;;;;;;24.70;44.40;;;;;;456833;261;2210;-72
2021/10/02 08:50:49;;;;;;;;;;;24.90;44.30;;;;;;456723;261;966;-72
2021/10/02 08:52:51;;;;;;;;;;;24.90;44.20;;;;;;456843;260;1073;-72
2021/10/02 08:54:54;;;;;;;;;;;24.80;44.40;;;;;;456856;260;988;-73
2021/10/02 08:56:53;;;;;;;;;;;24.90;44.50;;;;;;456858;260;1484;-72
2021/10/02 08:58:55;;;;;;;;;;;24.80;44.70;;;;;;456830;260;1160;-72
2021/10/02 09:00:56;;;;;;;;;;;24.90;44.70;;;;;;456864;260;979;-72
2021/10/02 09:02:57;;;;;;;;;;;24.80;44.70;;;;;;456819;260;1107;-73
2021/10/02 09:04:59;;;;;;;;;;;24.80;44.80;;;;;;456850;261;1022;-72
2021/10/02 09:07:00;;;;;;;;;;;24.80;44.90;;;;;;456774;260;1345;-72
2021/10/02 09:09:01;;;;;;;;;;;24.90;44.70;;;;;;456811;261;2206;-72
2021/10/02 09:11:02;;;;;;;;;;;25.00;44.60;;;;;;456817;260;1132;-72
2021/10/02 09:13:04;;;;;;;;;;;24.90;44.70;;;;;;456798;260;1158;-73
2021/10/02 09:15:05;;;;;;;;;;;25.00;44.70;;;;;;456879;260;968;-72
2021/10/02 09:17:06;;;;;;;;;;;24.90;45.00;;;;;;456760;260;1227;-72
2021/10/02 09:19:08;;;;;;;;;;;24.90;45.00;;;;;;456807;260;1166;-73
2021/10/02 09:21:09;;;;;;;;;;;24.90;45.10;;;;;;456789;260;1028;-73
2021/10/02 09:23:12;;;;;;;;;;;25.00;45.10;;;;;;456775;260;1128;-72
2021/10/02 09:25:12;;;;;;;;;;;25.00;44.90;;;;;;456829;260;1471;-72
2021/10/02 09:27:13;;;;;;;;;;;25.00;45.00;;;;;;456792;260;1251;-72
2021/10/02 09:29:15;;;;;;;;;;;25.00;44.90;;;;;;456958;259;2163;-72
2021/10/02 09:31:16;;;;;;;;;;;24.90;45.10;;;;;;456768;260;1085;-72
2021/10/02 09:33:20;;;;;;;;;;;24.80;45.40;;;;;;456863;260;1240;-72
2021/10/02 09:35:19;;;;;;;;;;;24.80;45.50;;;;;;456799;261;1429;-72
2021/10/02 09:37:21;;;;;;;;;;;24.90;45.50;;;;;;456678;260;1161;-72
2021/10/02 09:39:22;;;;;;;;;;;24.90;45.60;;;;;;456736;260;976;-72
2021/10/02 09:41:23;;;;;;;;;;;24.90;45.60;;;;;;456689;261;1212;-72
2021/10/02 09:43:25;;;;;;;;;;;25.00;45.40;;;;;;456743;260;1162;-72
2021/10/02 09:45:26;;;;;;;;;;;24.90;45.20;;;;;;456804;260;1225;-72
2021/10/02 09:47:27;;;;;;;;;;;24.90;45.50;;;;;;456763;261;1127;-72
2021/10/02 09:49:29;;;;;;;;;;;25.00;45.40;;;;;;456778;261;2195;-72
2021/10/02 09:51:30;;;;;;;;;;;24.80;45.60;;;;;;456800;258;1252;-72
2021/10/02 09:53:31;;;;;;;;;;;24.80;45.80;;;;;;456828;260;1286;-72
2021/10/02 09:55:33;;;;;;;;;;;24.90;45.50;;;;;;456853;260;1158;-72
2021/10/02 09:57:34;;;;;;;;;;;24.80;45.50;;;;;;456652;261;1069;-72
2021/10/02 09:59:35;;;;;;;;;;;24.80;45.70;;;;;;456844;260;1222;-72
2021/10/02 10:01:37;;;;;;;;;;;24.90;45.50;;;;;;456777;260;1003;-72
2021/10/02 10:03:38;;;;;;;;;;;24.90;45.50;;;;;;456815;260;998;-72
2021/10/02 10:05:40;;;;;;;;;;;25.00;45.50;;;;;;456760;260;1118;-72
2021/10/02 10:07:41;;;;;;;;;;;25.00;45.50;;;;;;456713;259;1447;-72
2021/10/02 10:09:42;;;;;;;;;;;25.00;45.40;;;;;;456814;260;2194;-72
2021/10/02 10:11:43;;;;;;;;;;;24.80;45.90;;;;;;456686;260;1326;-72
2021/10/02 10:13:45;;;;;;;;;;;24.90;45.70;;;;;;456735;260;1169;-72
2021/10/02 10:15:46;;;;;;;;;;;24.90;46.00;;;;;;456618;261;1220;-72
2021/10/02 10:17:47;;;;;;;;;;;25.00;45.60;;;;;;456765;261;1175;-72
2021/10/02 10:19:49;;;;;;;;;;;25.00;45.60;;;;;;456817;260;1015;-72
2021/10/02 10:21:50;;;;;;;;;;;24.90;45.80;;;;;;456693;260;1125;-72
2021/10/02 10:23:51;;;;;;;;;;;24.90;45.70;;;;;;456725;261;1163;-72
2021/10/02 10:25:53;;;;;;;;;;;24.90;45.70;;;;;;456763;260;1277;-72
2021/10/02 10:27:54;;;;;;;;;;;24.80;45.80;;;;;;456873;260;1163;-72
2021/10/02 10:29:55;;;;;;;;;;;25.00;45.80;;;;;;456773;261;2198;-73
2021/10/02 10:31:57;;;;;;;;;;;25.10;45.60;;;;;;456712;260;1343;-72
2021/10/02 10:33:58;;;;;;;;;;;25.00;45.70;;;;;;456822;260;976;-72
2021/10/02 10:35:59;;;;;;;;;;;25.10;45.60;;;;;;456791;260;1285;-72
2021/10/02 10:38:01;;;;;;;;;;;25.00;45.50;;;;;;456916;260;1383;-72
2021/10/02 10:40:02;;;;;;;;;;;24.90;45.80;;;;;;456871;260;1091;-72
2021/10/02 10:42:03;;;;;;;;;;;24.80;45.70;;;;;;456714;260;1156;-72
2021/10/02 10:44:05;;;;;;;;;;;24.90;45.80;;;;;;456756;260;997;-72
2021/10/02 10:46:06;;;;;;;;;;;25.00;45.70;;;;;;456799;260;1191;-72
2021/10/02 10:48:07;;;;;;;;;;;24.90;45.70;;;;;;456853;260;1116;-72
2021/10/02 10:50:10;;;;;;;;;;;24.90;45.90;;;;;;456840;260;2215;-72
2021/10/02 10:52:15;;;;;;;;;;;25.00;45.90;;;;;;456604;261;1168;-72
2021/10/02 10:54:13;;;;;;;;;;;24.90;45.80;;;;;;456782;260;1501;-72
2021/10/02 10:56:14;;;;;;;;;;;24.90;45.90;;;;;;456745;260;1189;-72
2021/10/02 10:58:15;;;;;;;;;;;24.80;45.90;;;;;;456814;260;1027;-72
2021/10/02 11:00:17;;;;;;;;;;;25.00;45.70;;;;;;456839;260;1179;-72
2021/10/02 11:02:18;;;;;;;;;;;25.00;45.70;;;;;;456781;258;1256;-72
2021/10/02 11:04:19;;;;;;;;;;;25.00;45.70;;;;;;456850;260;1069;-72
2021/10/02 11:06:21;;;;;;;;;;;24.90;45.60;;;;;;456796;260;1174;-72
2021/10/02 11:08:22;;;;;;;;;;;24.90;45.80;;;;;;456788;260;1043;-72
2021/10/02 11:10:23;;;;;;;;;;;24.90;45.90;;;;;;456793;261;2140;-72
2021/10/02 11:12:25;;;;;;;;;;;25.00;45.70;;;;;;456815;260;1265;-72
2021/10/02 11:14:26;;;;;;;;;;;24.90;45.90;;;;;;456652;261;1084;-72
2021/10/02 11:16:27;;;;;;;;;;;24.90;45.80;;;;;;456837;260;1214;-72
2021/10/02 11:18:29;;;;;;;;;;;25.00;45.70;;;;;;456842;260;977;-72
2021/10/02 11:20:30;;;;;;;;;;;25.10;45.60;;;;;;456810;260;979;-72
2021/10/02 11:22:34;;;;;;;;;;;24.90;45.80;;;;;;456793;260;1235;-72
2021/10/02 11:24:33;;;;;;;;;;;24.80;46.00;;;;;;456788;260;1455;-72
2021/10/02 11:26:35;;;;;;;;;;;24.90;45.70;;;;;;456787;260;1331;-73
2021/10/02 11:28:36;;;;;;;;;;;25.00;45.60;;;;;;456960;259;965;-72
2021/10/02 11:30:37;;;;;;;;;;;24.90;45.60;;;;;;456736;261;2207;-73
2021/10/02 11:32:39;;;;;;;;;;;24.90;45.70;;;;;;456833;260;1235;-72
2021/10/02 11:34:40;;;;;;;;;;;25.10;45.40;;;;;;456852;260;1003;-73
2021/10/02 11:36:41;;;;;;;;;;;24.90;45.80;;;;;;456807;260;1246;-72
2021/10/02 11:38:43;;;;;;;;;;;24.90;45.80;;;;;;456787;260;997;-72
2021/10/02 11:40:45;;;;;;;;;;;24.90;45.60;;;;;;456839;260;1056;-72
2021/10/02 11:42:45;;;;;;;;;;;25.00;45.50;;;;;;456796;260;1263;-72
2021/10/02 11:44:48;;;;;;;;;;;24.80;45.50;;;;;;456787;260;982;-72
2021/10/02 11:46:49;;;;;;;;;;;24.90;45.50;;;;;;456853;261;1223;-72
2021/10/02 11:48:50;;;;;;;;;;;24.90;45.40;;;;;;456875;260;965;-72
2021/10/02 11:50:51;;;;;;;;;;;25.00;45.20;;;;;;456774;261;2135;-72
2021/10/02 11:52:54;;;;;;;;;;;24.90;45.30;;;;;;456804;261;957;-72
2021/10/02 11:54:54;;;;;;;;;;;24.90;45.20;;;;;;456870;260;1497;-72
2021/10/02 11:56:55;;;;;;;;;;;24.90;45.10;;;;;;456772;260;1216;-72
2021/10/02 11:58:57;;;;;;;;;;;25.00;45.00;;;;;;456866;260;1134;-72
2021/10/02 12:00:58;;;;;;;;;;;24.90;44.90;;;;;;456765;260;1166;-72
2021/10/02 12:02:59;;;;;;;;;;;24.80;45.10;;;;;;456742;260;1196;-72
2021/10/02 12:05:01;;;;;;;;;;;24.80;45.40;;;;;;456844;260;1134;-72
2021/10/02 12:07:02;;;;;;;;;;;24.80;45.20;;;;;;456853;260;1180;-72
2021/10/02 12:09:04;;;;;;;;;;;24.70;45.30;;;;;;456820;255;1139;-72
2021/10/02 12:11:05;;;;;;;;;;;24.80;45.10;;;;;;456823;260;2138;-72
2021/10/02 12:13:06;;;;;;;;;;;24.70;45.20;;;;;;456798;259;1180;-72
2021/10/02 12:15:07;;;;;;;;;;;24.80;45.10;;;;;;456774;260;1181;-72
2021/10/02 12:17:10;;;;;;;;;;;24.90;44.90;;;;;;456776;260;1178;-72
2021/10/02 12:19:10;;;;;;;;;;;24.90;44.80;;;;;;456859;260;1469;-72
2021/10/02 12:21:11;;;;;;;;;;;25.00;44.70;;;;;;456793;259;1238;-72
2021/10/02 12:23:13;;;;;;;;;;;24.80;44.80;;;;;;456807;260;1143;-72
2021/10/02 12:25:14;;;;;;;;;;;24.70;44.80;;;;;;456821;260;975;-72
2021/10/02 12:27:15;;;;;;;;;;;24.90;44.80;;;;;;456819;260;1147;-72
2021/10/02 12:29:17;;;;;;;;;;;24.90;44.70;;;;;;456960;260;967;-72
2021/10/02 12:31:18;;;;;;;;;;;24.80;44.80;;;;;;456754;260;2138;-72
2021/10/02 12:33:19;;;;;;;;;;;24.80;44.90;;;;;;456791;259;1126;-72
2021/10/02 12:35:21;;;;;;;;;;;24.80;44.90;;;;;;456782;260;986;-72
2021/10/02 12:37:22;;;;;;;;;;;24.60;45.10;;;;;;456535;261;1163;-72
2021/10/02 12:39:23;;;;;;;;;;;24.80;44.80;;;;;;456724;261;1158;-72
2021/10/02 12:41:25;;;;;;;;;;;24.90;44.60;;;;;;456772;259;1336;-72
2021/10/02 12:43:26;;;;;;;;;;;24.80;44.60;;;;;;456835;260;1137;-72